OHBGD EPGD-EFMA
Flight info
| Callsign | OHBGD |
|---|---|
| Flight time | 2h 11m |
| Altitude | 24000 |
| Route | VAPOS N133 PENOR/N0253F250 DCT GOTAL DCT RIKUM |
| Aircraft | BE60/L-SBDFGIRYZ/SB2 |
Departure
| Time | 2026-04-29 13:09 |
|---|---|
| Airport | Gdańsk Lech Wałęsa Airport (EPGD) |
Arrival
| Time | 2026-04-29 15:21 |
|---|---|
| Airport | Mariehamn Airport (EFMA) |
| Time | Latitude | Longitude | Altitude | Speed | Heading |
|---|---|---|---|---|---|
| 2026-04-29 12:52 | 54.37276 | 18.49497 | 491 ft | 0 kts | 248° |
| 2026-04-29 13:05 | 54.37275 | 18.49494 | 491 ft | 2 kts | 248° |
| 2026-04-29 13:05 | 54.37290 | 18.49406 | 491 ft | 15 kts | 301° |
| 2026-04-29 13:05 | 54.37296 | 18.49316 | 487 ft | 8 kts | 207° |
| 2026-04-29 13:05 | 54.37305 | 18.49171 | 485 ft | 21 kts | 293° |
| 2026-04-29 13:06 | 54.37374 | 18.48889 | 488 ft | 25 kts | 294° |
| 2026-04-29 13:06 | 54.37442 | 18.48618 | 481 ft | 26 kts | 294° |
| 2026-04-29 13:06 | 54.37515 | 18.48311 | 474 ft | 30 kts | 294° |
| 2026-04-29 13:06 | 54.37599 | 18.47982 | 466 ft | 30 kts | 291° |
| 2026-04-29 13:07 | 54.37679 | 18.47663 | 459 ft | 29 kts | 292° |
| 2026-04-29 13:07 | 54.37761 | 18.47329 | 454 ft | 31 kts | 293° |
| 2026-04-29 13:07 | 54.37828 | 18.47046 | 454 ft | 15 kts | 277° |
| 2026-04-29 13:07 | 54.37816 | 18.46846 | 453 ft | 19 kts | 263° |
| 2026-04-29 13:08 | 54.37804 | 18.46611 | 451 ft | 17 kts | 270° |
| 2026-04-29 13:08 | 54.37773 | 18.46560 | 451 ft | 10 kts | 115° |
| 2026-04-29 13:08 | 54.37770 | 18.46573 | 451 ft | 0 kts | 112° |
| 2026-04-29 13:09 | 54.37660 | 18.47010 | 452 ft | 76 kts | 113° |
| 2026-04-29 13:09 | 54.37367 | 18.47956 | 675 ft | 97 kts | 115° |
| 2026-04-29 13:09 | 54.37082 | 18.49050 | 1110 ft | 103 kts | 105° |
| 2026-04-29 13:09 | 54.36830 | 18.50246 | 1582 ft | 112 kts | 105° |
| 2026-04-29 13:10 | 54.36523 | 18.51604 | 1976 ft | 128 kts | 105° |
| 2026-04-29 13:10 | 54.36204 | 18.53067 | 2497 ft | 134 kts | 107° |
| 2026-04-29 13:10 | 54.35812 | 18.54549 | 2985 ft | 138 kts | 107° |
| 2026-04-29 13:10 | 54.35426 | 18.56063 | 3461 ft | 140 kts | 106° |
| 2026-04-29 13:11 | 54.35042 | 18.57606 | 3971 ft | 142 kts | 106° |
| 2026-04-29 13:11 | 54.34650 | 18.59166 | 4466 ft | 143 kts | 106° |
| 2026-04-29 13:11 | 54.34262 | 18.60732 | 4982 ft | 143 kts | 105° |
| 2026-04-29 13:11 | 54.33993 | 18.62329 | 5469 ft | 134 kts | 74° |
| 2026-04-29 13:12 | 54.34442 | 18.63522 | 5954 ft | 117 kts | 29° |
| 2026-04-29 13:12 | 54.35152 | 18.64093 | 6480 ft | 111 kts | 6° |
| 2026-04-29 13:12 | 54.35909 | 18.63985 | 6997 ft | 111 kts | 342° |
| 2026-04-29 13:12 | 54.36557 | 18.63234 | 7472 ft | 116 kts | 322° |
| 2026-04-29 13:13 | 54.37148 | 18.62278 | 7935 ft | 117 kts | 324° |
| 2026-04-29 13:13 | 54.37763 | 18.61339 | 8419 ft | 119 kts | 324° |
| 2026-04-29 13:13 | 54.38394 | 18.60390 | 8889 ft | 122 kts | 324° |
| 2026-04-29 13:13 | 54.39040 | 18.59428 | 9366 ft | 125 kts | 324° |
| 2026-04-29 13:14 | 54.39725 | 18.58417 | 9756 ft | 134 kts | 323° |
| 2026-04-29 13:14 | 54.40442 | 18.57355 | 10181 ft | 139 kts | 323° |
| 2026-04-29 13:14 | 54.41182 | 18.56259 | 10620 ft | 142 kts | 323° |
| 2026-04-29 13:14 | 54.41936 | 18.55142 | 11047 ft | 144 kts | 324° |
| 2026-04-29 13:15 | 54.42701 | 18.54008 | 11477 ft | 147 kts | 324° |
| 2026-04-29 13:15 | 54.43488 | 18.52843 | 11886 ft | 151 kts | 324° |
| 2026-04-29 13:15 | 54.44292 | 18.51651 | 12308 ft | 154 kts | 325° |
| 2026-04-29 13:15 | 54.45108 | 18.50441 | 12747 ft | 156 kts | 325° |
| 2026-04-29 13:16 | 54.45918 | 18.49234 | 13171 ft | 156 kts | 327° |
| 2026-04-29 13:16 | 54.46472 | 18.48409 | 13485 ft | 156 kts | 328° |
| 2026-04-29 13:16 | 54.47297 | 18.47188 | 13964 ft | 157 kts | 328° |
| 2026-04-29 13:16 | 54.48393 | 18.45559 | 14552 ft | 157 kts | 329° |
| 2026-04-29 13:17 | 54.49222 | 18.44325 | 14969 ft | 158 kts | 329° |
| 2026-04-29 13:17 | 54.49784 | 18.43488 | 15252 ft | 158 kts | 329° |
| 2026-04-29 13:17 | 54.50617 | 18.42248 | 15679 ft | 159 kts | 329° |
| 2026-04-29 13:17 | 54.51454 | 18.41002 | 16110 ft | 159 kts | 330° |
| 2026-04-29 13:18 | 54.52291 | 18.39753 | 16547 ft | 160 kts | 330° |
| 2026-04-29 13:18 | 54.53132 | 18.38499 | 16992 ft | 160 kts | 330° |
| 2026-04-29 13:18 | 54.53976 | 18.37240 | 17438 ft | 161 kts | 330° |
| 2026-04-29 13:18 | 54.54821 | 18.35978 | 17885 ft | 161 kts | 331° |
| 2026-04-29 13:19 | 54.55669 | 18.34709 | 18344 ft | 162 kts | 331° |
| 2026-04-29 13:19 | 54.56520 | 18.33437 | 18781 ft | 162 kts | 331° |
| 2026-04-29 13:19 | 54.57373 | 18.32162 | 19174 ft | 162 kts | 332° |
| 2026-04-29 13:19 | 54.58225 | 18.30885 | 19572 ft | 162 kts | 333° |
| 2026-04-29 13:20 | 54.59078 | 18.29609 | 19977 ft | 162 kts | 333° |
| 2026-04-29 13:20 | 54.59928 | 18.28333 | 20394 ft | 162 kts | 334° |
| 2026-04-29 13:20 | 54.60713 | 18.26880 | 20803 ft | 178 kts | 314° |
| 2026-04-29 13:20 | 54.61203 | 18.24847 | 21228 ft | 184 kts | 307° |
| 2026-04-29 13:21 | 54.61676 | 18.22804 | 21606 ft | 183 kts | 309° |
| 2026-04-29 13:21 | 54.62156 | 18.20770 | 21986 ft | 183 kts | 309° |
| 2026-04-29 13:21 | 54.62633 | 18.18743 | 22371 ft | 182 kts | 309° |
| 2026-04-29 13:21 | 54.63109 | 18.16715 | 22757 ft | 182 kts | 310° |
| 2026-04-29 13:22 | 54.63576 | 18.14731 | 23129 ft | 180 kts | 313° |
| 2026-04-29 13:22 | 54.64217 | 18.13066 | 23478 ft | 159 kts | 333° |
| 2026-04-29 13:22 | 54.64988 | 18.11600 | 23645 ft | 170 kts | 330° |
| 2026-04-29 13:22 | 54.65782 | 18.10023 | 23865 ft | 177 kts | 330° |
| 2026-04-29 13:23 | 54.66599 | 18.08396 | 24103 ft | 181 kts | 329° |
| 2026-04-29 13:23 | 54.67427 | 18.06737 | 24310 ft | 182 kts | 332° |
| 2026-04-29 13:23 | 54.68264 | 18.05087 | 24457 ft | 187 kts | 332° |
| 2026-04-29 13:23 | 54.69156 | 18.03355 | 24466 ft | 199 kts | 330° |
| 2026-04-29 13:24 | 54.70088 | 18.01507 | 24470 ft | 208 kts | 329° |
| 2026-04-29 13:24 | 54.71047 | 17.99589 | 24473 ft | 213 kts | 329° |
| 2026-04-29 13:24 | 54.72022 | 17.97639 | 24469 ft | 215 kts | 329° |
| 2026-04-29 13:24 | 54.73008 | 17.95662 | 24467 ft | 218 kts | 328° |
| 2026-04-29 13:25 | 54.74009 | 17.93665 | 24470 ft | 221 kts | 328° |
| 2026-04-29 13:25 | 54.76056 | 17.89613 | 24470 ft | 227 kts | 328° |
| 2026-04-29 13:25 | 54.77103 | 17.87533 | 24467 ft | 231 kts | 328° |
| 2026-04-29 13:26 | 54.78161 | 17.85414 | 24465 ft | 233 kts | 327° |
| 2026-04-29 13:26 | 54.79244 | 17.83324 | 24468 ft | 228 kts | 334° |
| 2026-04-29 13:26 | 54.80507 | 17.81891 | 24474 ft | 210 kts | 349° |
| 2026-04-29 13:26 | 54.81845 | 17.80864 | 24469 ft | 211 kts | 350° |
| 2026-04-29 13:27 | 54.83188 | 17.79806 | 24474 ft | 213 kts | 349° |
| 2026-04-29 13:27 | 54.84539 | 17.78740 | 24472 ft | 214 kts | 349° |
| 2026-04-29 13:27 | 54.85895 | 17.77673 | 24470 ft | 215 kts | 349° |
| 2026-04-29 13:27 | 54.87257 | 17.76601 | 24468 ft | 215 kts | 349° |
| 2026-04-29 13:28 | 54.88623 | 17.75526 | 24472 ft | 216 kts | 349° |
| 2026-04-29 13:28 | 54.89992 | 17.74447 | 24472 ft | 216 kts | 349° |
| 2026-04-29 13:28 | 54.91365 | 17.73365 | 24472 ft | 217 kts | 349° |
| 2026-04-29 13:28 | 54.92738 | 17.72281 | 24471 ft | 217 kts | 349° |
| 2026-04-29 13:29 | 54.94114 | 17.71194 | 24471 ft | 217 kts | 349° |
| 2026-04-29 13:29 | 54.95493 | 17.70104 | 24441 ft | 217 kts | 350° |
| 2026-04-29 13:29 | 54.96861 | 17.69021 | 24456 ft | 216 kts | 350° |
| 2026-04-29 13:29 | 54.98230 | 17.67944 | 24457 ft | 216 kts | 351° |
| 2026-04-29 13:30 | 54.99604 | 17.66907 | 24453 ft | 215 kts | 351° |
| 2026-04-29 13:30 | 55.00977 | 17.65869 | 24454 ft | 215 kts | 351° |
| 2026-04-29 13:30 | 55.02351 | 17.64824 | 24452 ft | 216 kts | 351° |
| 2026-04-29 13:30 | 55.03722 | 17.63775 | 24456 ft | 215 kts | 351° |
| 2026-04-29 13:31 | 55.05093 | 17.62727 | 24456 ft | 215 kts | 351° |
| 2026-04-29 13:31 | 55.06466 | 17.61677 | 24457 ft | 215 kts | 351° |
| 2026-04-29 13:31 | 55.07838 | 17.60628 | 24456 ft | 215 kts | 351° |
| 2026-04-29 13:31 | 55.09211 | 17.59577 | 24457 ft | 215 kts | 351° |
| 2026-04-29 13:32 | 55.10584 | 17.58525 | 24458 ft | 216 kts | 351° |
| 2026-04-29 13:32 | 55.11957 | 17.57472 | 24455 ft | 216 kts | 351° |
| 2026-04-29 13:32 | 55.13331 | 17.56417 | 24455 ft | 216 kts | 351° |
| 2026-04-29 13:32 | 55.14705 | 17.55362 | 24453 ft | 216 kts | 350° |
| 2026-04-29 13:33 | 55.16079 | 17.54306 | 24452 ft | 216 kts | 351° |
| 2026-04-29 13:33 | 55.17453 | 17.53250 | 24452 ft | 216 kts | 350° |
| 2026-04-29 13:33 | 55.18827 | 17.52192 | 24453 ft | 216 kts | 351° |
| 2026-04-29 13:33 | 55.20202 | 17.51133 | 24453 ft | 216 kts | 350° |
| 2026-04-29 13:34 | 55.21575 | 17.50072 | 24453 ft | 216 kts | 350° |
| 2026-04-29 13:34 | 55.22947 | 17.48980 | 24452 ft | 217 kts | 349° |
| 2026-04-29 13:34 | 55.24318 | 17.47885 | 24453 ft | 217 kts | 350° |
| 2026-04-29 13:34 | 55.25671 | 17.46809 | 24453 ft | 216 kts | 350° |
| 2026-04-29 13:35 | 55.27042 | 17.45720 | 24449 ft | 216 kts | 350° |
| 2026-04-29 13:35 | 55.28413 | 17.44630 | 24450 ft | 217 kts | 350° |
| 2026-04-29 13:35 | 55.29785 | 17.43538 | 24451 ft | 217 kts | 350° |
| 2026-04-29 13:35 | 55.31158 | 17.42444 | 24451 ft | 217 kts | 350° |
| 2026-04-29 13:36 | 55.32529 | 17.41352 | 24451 ft | 217 kts | 350° |
| 2026-04-29 13:36 | 55.33900 | 17.40258 | 24447 ft | 216 kts | 349° |
| 2026-04-29 13:36 | 55.35268 | 17.39165 | 24438 ft | 215 kts | 349° |
| 2026-04-29 13:36 | 55.36625 | 17.38079 | 24446 ft | 214 kts | 349° |
| 2026-04-29 13:37 | 55.37984 | 17.36994 | 24447 ft | 215 kts | 349° |
| 2026-04-29 13:37 | 55.39345 | 17.35906 | 24447 ft | 215 kts | 349° |
| 2026-04-29 13:37 | 55.40704 | 17.34817 | 24447 ft | 215 kts | 349° |
| 2026-04-29 13:37 | 55.42065 | 17.33727 | 24447 ft | 215 kts | 349° |
| 2026-04-29 13:38 | 55.43427 | 17.32634 | 24444 ft | 215 kts | 349° |
| 2026-04-29 13:38 | 55.44788 | 17.31541 | 24445 ft | 215 kts | 349° |
| 2026-04-29 13:38 | 55.46150 | 17.30447 | 24445 ft | 215 kts | 349° |
| 2026-04-29 13:38 | 55.47513 | 17.29351 | 24444 ft | 215 kts | 349° |
| 2026-04-29 13:39 | 55.48876 | 17.28256 | 24445 ft | 215 kts | 349° |
| 2026-04-29 13:39 | 55.50239 | 17.27157 | 24444 ft | 215 kts | 349° |
| 2026-04-29 13:39 | 55.51601 | 17.26060 | 24445 ft | 215 kts | 349° |
| 2026-04-29 13:39 | 55.52965 | 17.24960 | 24446 ft | 215 kts | 349° |
| 2026-04-29 13:40 | 55.54326 | 17.23862 | 24445 ft | 215 kts | 349° |
| 2026-04-29 13:40 | 55.55688 | 17.22762 | 24446 ft | 215 kts | 349° |
| 2026-04-29 13:40 | 55.57052 | 17.21660 | 24445 ft | 215 kts | 349° |
| 2026-04-29 13:40 | 55.58414 | 17.20558 | 24442 ft | 215 kts | 349° |
| 2026-04-29 13:41 | 55.59776 | 17.19455 | 24443 ft | 215 kts | 349° |
| 2026-04-29 13:41 | 55.61139 | 17.18352 | 24443 ft | 215 kts | 349° |
| 2026-04-29 13:41 | 55.62502 | 17.17247 | 24443 ft | 215 kts | 349° |
| 2026-04-29 13:41 | 55.63865 | 17.16589 | 24442 ft | 199 kts | 5° |
| 2026-04-29 13:42 | 55.65211 | 17.16762 | 24452 ft | 191 kts | 19° |
| 2026-04-29 13:42 | 55.66488 | 17.17372 | 24456 ft | 190 kts | 19° |
| 2026-04-29 13:42 | 55.67769 | 17.17960 | 24458 ft | 190 kts | 19° |
| 2026-04-29 13:42 | 55.69027 | 17.18539 | 24629 ft | 183 kts | 20° |
| 2026-04-29 13:43 | 55.70233 | 17.19099 | 24804 ft | 176 kts | 20° |
| 2026-04-29 13:43 | 55.71399 | 17.19643 | 24961 ft | 171 kts | 20° |
| 2026-04-29 13:43 | 55.72535 | 17.20174 | 25104 ft | 167 kts | 20° |
| 2026-04-29 13:43 | 55.73651 | 17.20695 | 25237 ft | 164 kts | 20° |
| 2026-04-29 13:44 | 55.74747 | 17.21207 | 25361 ft | 162 kts | 20° |
| 2026-04-29 13:44 | 55.75831 | 17.21714 | 25445 ft | 162 kts | 20° |
| 2026-04-29 13:44 | 55.76930 | 17.22230 | 25444 ft | 165 kts | 20° |
| 2026-04-29 13:44 | 55.78049 | 17.22754 | 25448 ft | 168 kts | 20° |
| 2026-04-29 13:45 | 55.79187 | 17.23286 | 25453 ft | 170 kts | 20° |
| 2026-04-29 13:45 | 55.80336 | 17.23825 | 25458 ft | 172 kts | 20° |
| 2026-04-29 13:45 | 55.81496 | 17.24368 | 25462 ft | 173 kts | 20° |
| 2026-04-29 13:45 | 55.82667 | 17.24917 | 25462 ft | 175 kts | 20° |
| 2026-04-29 13:46 | 55.83846 | 17.25471 | 25459 ft | 176 kts | 20° |
| 2026-04-29 13:46 | 55.85010 | 17.26017 | 25461 ft | 177 kts | 20° |
| 2026-04-29 13:46 | 55.86204 | 17.26578 | 25462 ft | 178 kts | 20° |
| 2026-04-29 13:46 | 55.87404 | 17.27142 | 25461 ft | 179 kts | 20° |
| 2026-04-29 13:47 | 55.88606 | 17.27708 | 25461 ft | 179 kts | 20° |
| 2026-04-29 13:47 | 55.89815 | 17.28277 | 25461 ft | 180 kts | 20° |
| 2026-04-29 13:47 | 55.91024 | 17.28846 | 25462 ft | 180 kts | 20° |
| 2026-04-29 13:47 | 55.92236 | 17.29417 | 25461 ft | 180 kts | 20° |
| 2026-04-29 13:48 | 55.93451 | 17.29990 | 25459 ft | 181 kts | 20° |
| 2026-04-29 13:48 | 55.94667 | 17.30564 | 25460 ft | 181 kts | 20° |
| 2026-04-29 13:48 | 55.95884 | 17.31139 | 25460 ft | 181 kts | 19° |
| 2026-04-29 13:48 | 55.97087 | 17.31708 | 25461 ft | 181 kts | 20° |
| 2026-04-29 13:49 | 55.98307 | 17.32284 | 25461 ft | 181 kts | 19° |
| 2026-04-29 13:49 | 55.99528 | 17.32863 | 25462 ft | 182 kts | 19° |
| 2026-04-29 13:49 | 56.00750 | 17.33441 | 25460 ft | 182 kts | 20° |
| 2026-04-29 13:49 | 56.01972 | 17.34020 | 25461 ft | 182 kts | 19° |
| 2026-04-29 13:50 | 56.03195 | 17.34600 | 25461 ft | 182 kts | 19° |
| 2026-04-29 13:50 | 56.04419 | 17.35180 | 25461 ft | 182 kts | 20° |
| 2026-04-29 13:50 | 56.05643 | 17.35762 | 25462 ft | 182 kts | 19° |
| 2026-04-29 13:50 | 56.06867 | 17.36344 | 25462 ft | 182 kts | 20° |
| 2026-04-29 13:51 | 56.08092 | 17.36925 | 25459 ft | 182 kts | 19° |
| 2026-04-29 13:51 | 56.09318 | 17.37509 | 25457 ft | 182 kts | 19° |
| 2026-04-29 13:51 | 56.10544 | 17.38093 | 25458 ft | 182 kts | 19° |
| 2026-04-29 13:51 | 56.11770 | 17.38677 | 25458 ft | 182 kts | 19° |
| 2026-04-29 13:52 | 56.12996 | 17.39261 | 25458 ft | 182 kts | 19° |
| 2026-04-29 13:52 | 56.14223 | 17.39846 | 25458 ft | 182 kts | 20° |
| 2026-04-29 13:52 | 56.15450 | 17.40434 | 25451 ft | 182 kts | 19° |
| 2026-04-29 13:52 | 56.16677 | 17.41020 | 25451 ft | 183 kts | 19° |
| 2026-04-29 13:53 | 56.17904 | 17.41605 | 25449 ft | 183 kts | 19° |
| 2026-04-29 13:53 | 56.19131 | 17.42191 | 25449 ft | 182 kts | 19° |
| 2026-04-29 13:53 | 56.20359 | 17.42779 | 25449 ft | 182 kts | 19° |
| 2026-04-29 13:53 | 56.21585 | 17.43366 | 25449 ft | 182 kts | 19° |
| 2026-04-29 13:54 | 56.22810 | 17.43953 | 25449 ft | 182 kts | 19° |
| 2026-04-29 13:54 | 56.24039 | 17.44543 | 25449 ft | 182 kts | 19° |
| 2026-04-29 13:54 | 56.25265 | 17.45130 | 25449 ft | 182 kts | 19° |
| 2026-04-29 13:54 | 56.26490 | 17.45718 | 25449 ft | 182 kts | 19° |
| 2026-04-29 13:55 | 56.27717 | 17.46308 | 25446 ft | 182 kts | 19° |
| 2026-04-29 13:55 | 56.28945 | 17.46898 | 25446 ft | 182 kts | 19° |
| 2026-04-29 13:55 | 56.30173 | 17.47488 | 25446 ft | 182 kts | 19° |
| 2026-04-29 13:55 | 56.31381 | 17.48070 | 25446 ft | 182 kts | 19° |
| 2026-04-29 13:56 | 56.32609 | 17.48662 | 25449 ft | 183 kts | 19° |
| 2026-04-29 13:56 | 56.33836 | 17.49254 | 25449 ft | 183 kts | 19° |
| 2026-04-29 13:56 | 56.35063 | 17.49845 | 25449 ft | 183 kts | 19° |
| 2026-04-29 13:56 | 56.36289 | 17.50437 | 25450 ft | 183 kts | 19° |
| 2026-04-29 13:57 | 56.37516 | 17.51030 | 25447 ft | 183 kts | 19° |
| 2026-04-29 13:57 | 56.38742 | 17.51623 | 25447 ft | 183 kts | 19° |
| 2026-04-29 13:57 | 56.39969 | 17.52216 | 25447 ft | 183 kts | 19° |
| 2026-04-29 13:57 | 56.40783 | 17.52610 | 25447 ft | 183 kts | 19° |
| 2026-04-29 13:58 | 56.42422 | 17.53404 | 25440 ft | 182 kts | 18° |
| 2026-04-29 13:58 | 56.43649 | 17.53997 | 25438 ft | 182 kts | 18° |
| 2026-04-29 13:58 | 56.44873 | 17.54591 | 25436 ft | 182 kts | 18° |
| 2026-04-29 13:58 | 56.46097 | 17.55185 | 25437 ft | 182 kts | 18° |
| 2026-04-29 13:59 | 56.47319 | 17.55778 | 25433 ft | 182 kts | 18° |
| 2026-04-29 13:59 | 56.48539 | 17.56371 | 25433 ft | 182 kts | 18° |
| 2026-04-29 13:59 | 56.49759 | 17.56964 | 25434 ft | 181 kts | 18° |
| 2026-04-29 13:59 | 56.50977 | 17.57557 | 25433 ft | 181 kts | 18° |
| 2026-04-29 14:00 | 56.52193 | 17.58150 | 25440 ft | 181 kts | 18° |
| 2026-04-29 14:00 | 56.53407 | 17.58740 | 25440 ft | 181 kts | 18° |
| 2026-04-29 14:00 | 56.54620 | 17.59331 | 25440 ft | 180 kts | 18° |
| 2026-04-29 14:00 | 56.55832 | 17.59923 | 25441 ft | 180 kts | 18° |
| 2026-04-29 14:01 | 56.57044 | 17.60515 | 25446 ft | 180 kts | 18° |
| 2026-04-29 14:01 | 56.58255 | 17.61106 | 25445 ft | 180 kts | 18° |
| 2026-04-29 14:01 | 56.59466 | 17.61698 | 25445 ft | 180 kts | 18° |
| 2026-04-29 14:01 | 56.60679 | 17.62291 | 25445 ft | 180 kts | 18° |
| 2026-04-29 14:02 | 56.61892 | 17.62885 | 25442 ft | 180 kts | 18° |
| 2026-04-29 14:02 | 56.63104 | 17.63478 | 25442 ft | 180 kts | 18° |
| 2026-04-29 14:02 | 56.64315 | 17.64073 | 25442 ft | 180 kts | 18° |
| 2026-04-29 14:02 | 56.65529 | 17.64668 | 25443 ft | 180 kts | 18° |
| 2026-04-29 14:03 | 56.66739 | 17.65262 | 25444 ft | 180 kts | 18° |
| 2026-04-29 14:03 | 56.67950 | 17.65857 | 25444 ft | 180 kts | 18° |
| 2026-04-29 14:03 | 56.69159 | 17.66450 | 25444 ft | 180 kts | 18° |
| 2026-04-29 14:03 | 56.70368 | 17.67045 | 25444 ft | 180 kts | 18° |
| 2026-04-29 14:04 | 56.71576 | 17.67640 | 25445 ft | 180 kts | 18° |
| 2026-04-29 14:04 | 56.72783 | 17.68234 | 25445 ft | 180 kts | 18° |
| 2026-04-29 14:04 | 56.73584 | 17.68628 | 25445 ft | 180 kts | 18° |
| 2026-04-29 14:04 | 56.75184 | 17.69417 | 25445 ft | 180 kts | 18° |
| 2026-04-29 14:05 | 56.76392 | 17.70014 | 25443 ft | 180 kts | 18° |
| 2026-04-29 14:05 | 56.77600 | 17.70610 | 25443 ft | 180 kts | 18° |
| 2026-04-29 14:05 | 56.78809 | 17.71207 | 25443 ft | 180 kts | 18° |
| 2026-04-29 14:05 | 56.79624 | 17.71610 | 25443 ft | 180 kts | 18° |
| 2026-04-29 14:06 | 56.81223 | 17.72401 | 25444 ft | 180 kts | 18° |
| 2026-04-29 14:06 | 56.82040 | 17.72806 | 25444 ft | 180 kts | 18° |
| 2026-04-29 14:06 | 56.83247 | 17.73403 | 25444 ft | 180 kts | 18° |
| 2026-04-29 14:06 | 56.84455 | 17.74002 | 25444 ft | 180 kts | 18° |
| 2026-04-29 14:07 | 56.85664 | 17.74602 | 25441 ft | 180 kts | 18° |
| 2026-04-29 14:07 | 56.86871 | 17.75200 | 25441 ft | 180 kts | 18° |
| 2026-04-29 14:07 | 56.88080 | 17.75801 | 25435 ft | 180 kts | 18° |
| 2026-04-29 14:07 | 56.89273 | 17.76394 | 25435 ft | 180 kts | 18° |
| 2026-04-29 14:08 | 56.90481 | 17.76994 | 25438 ft | 180 kts | 18° |
| 2026-04-29 14:08 | 56.91687 | 17.77595 | 25436 ft | 180 kts | 18° |
| 2026-04-29 14:08 | 56.92896 | 17.78196 | 25438 ft | 180 kts | 18° |
| 2026-04-29 14:08 | 56.94101 | 17.78798 | 25437 ft | 180 kts | 17° |
| 2026-04-29 14:09 | 56.95308 | 17.79399 | 25438 ft | 180 kts | 17° |
| 2026-04-29 14:09 | 56.96515 | 17.80001 | 25438 ft | 180 kts | 17° |
| 2026-04-29 14:09 | 56.97721 | 17.80604 | 25438 ft | 180 kts | 17° |
| 2026-04-29 14:09 | 56.98929 | 17.81207 | 25438 ft | 180 kts | 17° |
| 2026-04-29 14:10 | 57.00137 | 17.81811 | 25435 ft | 180 kts | 17° |
| 2026-04-29 14:10 | 57.01344 | 17.82415 | 25435 ft | 180 kts | 17° |
| 2026-04-29 14:10 | 57.02553 | 17.83020 | 25435 ft | 180 kts | 17° |
| 2026-04-29 14:10 | 57.03761 | 17.83626 | 25436 ft | 180 kts | 17° |
| 2026-04-29 14:11 | 57.04970 | 17.84232 | 25439 ft | 180 kts | 17° |
| 2026-04-29 14:11 | 57.06179 | 17.84838 | 25439 ft | 180 kts | 17° |
| 2026-04-29 14:11 | 57.07390 | 17.85447 | 25439 ft | 180 kts | 17° |
| 2026-04-29 14:11 | 57.08600 | 17.86054 | 25439 ft | 180 kts | 17° |
| 2026-04-29 14:12 | 57.09812 | 17.86663 | 25437 ft | 180 kts | 17° |
| 2026-04-29 14:12 | 57.11022 | 17.87272 | 25437 ft | 180 kts | 17° |
| 2026-04-29 14:12 | 57.12234 | 17.87881 | 25437 ft | 180 kts | 17° |
| 2026-04-29 14:12 | 57.13445 | 17.88492 | 25438 ft | 180 kts | 17° |
| 2026-04-29 14:13 | 57.14656 | 17.89102 | 25435 ft | 180 kts | 17° |
| 2026-04-29 14:13 | 57.15866 | 17.89712 | 25435 ft | 180 kts | 17° |
| 2026-04-29 14:13 | 57.17077 | 17.90324 | 25435 ft | 180 kts | 17° |
| 2026-04-29 14:13 | 57.18288 | 17.90935 | 25435 ft | 180 kts | 17° |
| 2026-04-29 14:14 | 57.19497 | 17.91546 | 25431 ft | 180 kts | 17° |
| 2026-04-29 14:14 | 57.20709 | 17.92158 | 25433 ft | 180 kts | 17° |
| 2026-04-29 14:14 | 57.21918 | 17.92770 | 25433 ft | 180 kts | 17° |
| 2026-04-29 14:14 | 57.23129 | 17.93384 | 25433 ft | 180 kts | 17° |
| 2026-04-29 14:15 | 57.24322 | 17.93988 | 25435 ft | 180 kts | 17° |
| 2026-04-29 14:15 | 57.25533 | 17.94603 | 25436 ft | 180 kts | 17° |
| 2026-04-29 14:15 | 57.26744 | 17.95218 | 25436 ft | 180 kts | 17° |
| 2026-04-29 14:15 | 57.27954 | 17.95831 | 25436 ft | 180 kts | 17° |
| 2026-04-29 14:16 | 57.29165 | 17.96448 | 25437 ft | 181 kts | 17° |
| 2026-04-29 14:16 | 57.30394 | 17.97072 | 25436 ft | 181 kts | 17° |
| 2026-04-29 14:16 | 57.31591 | 17.97681 | 25436 ft | 181 kts | 17° |
| 2026-04-29 14:16 | 57.32803 | 17.98299 | 25437 ft | 181 kts | 17° |
| 2026-04-29 14:17 | 57.34013 | 17.98915 | 25434 ft | 181 kts | 17° |
| 2026-04-29 14:17 | 57.35226 | 17.99533 | 25434 ft | 181 kts | 17° |
| 2026-04-29 14:17 | 57.36439 | 18.00153 | 25434 ft | 181 kts | 17° |
| 2026-04-29 14:17 | 57.37651 | 18.00771 | 25434 ft | 181 kts | 17° |
| 2026-04-29 14:18 | 57.38862 | 18.01391 | 25433 ft | 181 kts | 17° |
| 2026-04-29 14:18 | 57.40074 | 18.02010 | 25434 ft | 181 kts | 17° |
| 2026-04-29 14:18 | 57.41286 | 18.02630 | 25431 ft | 181 kts | 17° |
| 2026-04-29 14:18 | 57.42498 | 18.03250 | 25431 ft | 181 kts | 17° |
| 2026-04-29 14:19 | 57.43711 | 18.03871 | 25432 ft | 181 kts | 17° |
| 2026-04-29 14:19 | 57.44924 | 18.04493 | 25432 ft | 181 kts | 17° |
| 2026-04-29 14:19 | 57.46134 | 18.05115 | 25432 ft | 181 kts | 17° |
| 2026-04-29 14:19 | 57.47346 | 18.05736 | 25432 ft | 181 kts | 17° |
| 2026-04-29 14:20 | 57.48558 | 18.06360 | 25431 ft | 181 kts | 17° |
| 2026-04-29 14:20 | 57.49769 | 18.06982 | 25431 ft | 181 kts | 17° |
| 2026-04-29 14:20 | 57.50981 | 18.07606 | 25431 ft | 181 kts | 17° |
| 2026-04-29 14:20 | 57.52191 | 18.08229 | 25431 ft | 181 kts | 17° |
| 2026-04-29 14:21 | 57.53402 | 18.08852 | 25429 ft | 181 kts | 17° |
| 2026-04-29 14:21 | 57.54612 | 18.09477 | 25429 ft | 181 kts | 17° |
| 2026-04-29 14:21 | 57.55824 | 18.10101 | 25429 ft | 181 kts | 17° |
| 2026-04-29 14:21 | 57.57036 | 18.10728 | 25429 ft | 181 kts | 17° |
| 2026-04-29 14:22 | 57.58246 | 18.11352 | 25429 ft | 181 kts | 17° |
| 2026-04-29 14:22 | 57.59443 | 18.11971 | 25429 ft | 181 kts | 17° |
| 2026-04-29 14:22 | 57.60654 | 18.12597 | 25429 ft | 181 kts | 17° |
| 2026-04-29 14:22 | 57.61864 | 18.13223 | 25429 ft | 181 kts | 17° |
| 2026-04-29 14:23 | 57.63075 | 18.13852 | 25432 ft | 181 kts | 17° |
| 2026-04-29 14:23 | 57.64288 | 18.14480 | 25432 ft | 181 kts | 17° |
| 2026-04-29 14:23 | 57.65498 | 18.15108 | 25432 ft | 181 kts | 17° |
| 2026-04-29 14:23 | 57.66712 | 18.15738 | 25422 ft | 181 kts | 17° |
| 2026-04-29 14:24 | 57.67924 | 18.16367 | 25419 ft | 181 kts | 17° |
| 2026-04-29 14:24 | 57.69137 | 18.16998 | 25419 ft | 181 kts | 17° |
| 2026-04-29 14:24 | 57.70348 | 18.17628 | 25419 ft | 181 kts | 17° |
| 2026-04-29 14:24 | 57.71561 | 18.18260 | 25421 ft | 181 kts | 17° |
| 2026-04-29 14:25 | 57.72775 | 18.18894 | 25423 ft | 181 kts | 17° |
| 2026-04-29 14:25 | 57.73985 | 18.19533 | 25424 ft | 181 kts | 16° |
| 2026-04-29 14:25 | 57.75198 | 18.20157 | 25425 ft | 181 kts | 16° |
| 2026-04-29 14:25 | 57.76409 | 18.20786 | 25425 ft | 181 kts | 16° |
| 2026-04-29 14:26 | 57.77620 | 18.21420 | 25425 ft | 181 kts | 16° |
| 2026-04-29 14:26 | 57.78831 | 18.22053 | 25425 ft | 181 kts | 16° |
| 2026-04-29 14:26 | 57.80039 | 18.22685 | 25425 ft | 181 kts | 16° |
| 2026-04-29 14:26 | 57.81248 | 18.23318 | 25425 ft | 181 kts | 16° |
| 2026-04-29 14:27 | 57.82460 | 18.23952 | 25426 ft | 181 kts | 16° |
| 2026-04-29 14:27 | 57.83669 | 18.24586 | 25424 ft | 180 kts | 16° |
| 2026-04-29 14:27 | 57.84879 | 18.25221 | 25424 ft | 180 kts | 16° |
| 2026-04-29 14:28 | 57.87296 | 18.26490 | 25425 ft | 180 kts | 16° |
| 2026-04-29 14:28 | 57.88506 | 18.27126 | 25426 ft | 180 kts | 16° |
| 2026-04-29 14:28 | 57.89713 | 18.27761 | 25426 ft | 180 kts | 16° |
| 2026-04-29 14:28 | 57.90921 | 18.28397 | 25425 ft | 180 kts | 16° |
| 2026-04-29 14:29 | 57.92128 | 18.29033 | 25421 ft | 180 kts | 16° |
| 2026-04-29 14:29 | 57.93335 | 18.29669 | 25421 ft | 180 kts | 16° |
| 2026-04-29 14:29 | 57.94543 | 18.30307 | 25421 ft | 180 kts | 16° |
| 2026-04-29 14:29 | 57.95750 | 18.30943 | 25422 ft | 180 kts | 16° |
| 2026-04-29 14:30 | 57.96959 | 18.31582 | 25421 ft | 180 kts | 16° |
| 2026-04-29 14:30 | 57.98167 | 18.32220 | 25421 ft | 180 kts | 16° |
| 2026-04-29 14:30 | 57.99373 | 18.32859 | 25429 ft | 180 kts | 15° |
| 2026-04-29 14:30 | 58.00579 | 18.33497 | 25429 ft | 180 kts | 16° |
| 2026-04-29 14:31 | 58.01785 | 18.34136 | 25430 ft | 180 kts | 16° |
| 2026-04-29 14:31 | 58.02991 | 18.34775 | 25430 ft | 180 kts | 16° |
| 2026-04-29 14:31 | 58.04182 | 18.35407 | 25430 ft | 180 kts | 16° |
| 2026-04-29 14:31 | 58.05389 | 18.36048 | 25427 ft | 180 kts | 16° |
| 2026-04-29 14:32 | 58.06596 | 18.36688 | 25429 ft | 180 kts | 16° |
| 2026-04-29 14:32 | 58.07801 | 18.37329 | 25429 ft | 180 kts | 16° |
| 2026-04-29 14:32 | 58.09008 | 18.37972 | 25429 ft | 180 kts | 16° |
| 2026-04-29 14:32 | 58.10215 | 18.38613 | 25430 ft | 180 kts | 16° |
| 2026-04-29 14:33 | 58.11421 | 18.39256 | 25428 ft | 180 kts | 16° |
| 2026-04-29 14:33 | 58.12629 | 18.39901 | 25428 ft | 180 kts | 16° |
| 2026-04-29 14:33 | 58.13836 | 18.40544 | 25428 ft | 180 kts | 16° |
| 2026-04-29 14:33 | 58.15043 | 18.41188 | 25428 ft | 180 kts | 16° |
| 2026-04-29 14:34 | 58.16249 | 18.41832 | 25420 ft | 180 kts | 16° |
| 2026-04-29 14:34 | 58.17456 | 18.42478 | 25420 ft | 180 kts | 16° |
| 2026-04-29 14:34 | 58.18663 | 18.43124 | 25420 ft | 180 kts | 16° |
| 2026-04-29 14:34 | 58.19870 | 18.43770 | 25420 ft | 180 kts | 16° |
| 2026-04-29 14:35 | 58.21076 | 18.44416 | 25425 ft | 180 kts | 16° |
| 2026-04-29 14:35 | 58.22284 | 18.45063 | 25425 ft | 180 kts | 16° |
| 2026-04-29 14:35 | 58.23490 | 18.45710 | 25425 ft | 180 kts | 16° |
| 2026-04-29 14:35 | 58.24696 | 18.46358 | 25425 ft | 180 kts | 16° |
| 2026-04-29 14:36 | 58.25888 | 18.46978 | 25420 ft | 180 kts | 15° |
| 2026-04-29 14:36 | 58.27097 | 18.47604 | 25414 ft | 180 kts | 15° |
| 2026-04-29 14:36 | 58.28307 | 18.48232 | 25414 ft | 180 kts | 15° |
| 2026-04-29 14:36 | 58.29516 | 18.48862 | 25414 ft | 180 kts | 15° |
| 2026-04-29 14:37 | 58.30725 | 18.49493 | 25417 ft | 180 kts | 15° |
| 2026-04-29 14:37 | 58.31934 | 18.50125 | 25417 ft | 180 kts | 15° |
| 2026-04-29 14:37 | 58.33143 | 18.50756 | 25417 ft | 180 kts | 15° |
| 2026-04-29 14:37 | 58.34353 | 18.51389 | 25417 ft | 180 kts | 15° |
| 2026-04-29 14:38 | 58.35561 | 18.52021 | 25414 ft | 180 kts | 15° |
| 2026-04-29 14:38 | 58.36770 | 18.52654 | 25414 ft | 180 kts | 15° |
| 2026-04-29 14:38 | 58.37978 | 18.53288 | 25414 ft | 180 kts | 15° |
| 2026-04-29 14:38 | 58.39187 | 18.53921 | 25415 ft | 180 kts | 15° |
| 2026-04-29 14:39 | 58.40398 | 18.54556 | 25409 ft | 180 kts | 15° |
| 2026-04-29 14:39 | 58.41606 | 18.55191 | 25409 ft | 180 kts | 15° |
| 2026-04-29 14:39 | 58.42802 | 18.55819 | 25409 ft | 180 kts | 15° |
| 2026-04-29 14:39 | 58.44011 | 18.56455 | 25410 ft | 180 kts | 15° |
| 2026-04-29 14:40 | 58.45222 | 18.57092 | 25416 ft | 180 kts | 15° |
| 2026-04-29 14:40 | 58.46433 | 18.57729 | 25416 ft | 181 kts | 15° |
| 2026-04-29 14:40 | 58.47643 | 18.58368 | 25416 ft | 181 kts | 15° |
| 2026-04-29 14:40 | 58.48854 | 18.59006 | 25413 ft | 181 kts | 15° |
| 2026-04-29 14:41 | 58.50065 | 18.59645 | 25410 ft | 181 kts | 15° |
| 2026-04-29 14:41 | 58.51277 | 18.60285 | 25410 ft | 181 kts | 15° |
| 2026-04-29 14:41 | 58.52487 | 18.60924 | 25411 ft | 181 kts | 15° |
| 2026-04-29 14:41 | 58.53699 | 18.61566 | 25417 ft | 181 kts | 14° |
| 2026-04-29 14:42 | 58.54910 | 18.62207 | 25417 ft | 181 kts | 14° |
| 2026-04-29 14:42 | 58.56123 | 18.62849 | 25417 ft | 181 kts | 14° |
| 2026-04-29 14:42 | 58.57335 | 18.63491 | 25417 ft | 181 kts | 14° |
| 2026-04-29 14:42 | 58.58548 | 18.64134 | 25417 ft | 181 kts | 14° |
| 2026-04-29 14:43 | 58.59760 | 18.64777 | 25413 ft | 181 kts | 14° |
| 2026-04-29 14:43 | 58.60974 | 18.65422 | 25413 ft | 181 kts | 14° |
| 2026-04-29 14:43 | 58.62185 | 18.66066 | 25414 ft | 181 kts | 14° |
| 2026-04-29 14:43 | 58.63399 | 18.66711 | 25414 ft | 181 kts | 14° |
| 2026-04-29 14:44 | 58.64614 | 18.67359 | 25412 ft | 181 kts | 14° |
| 2026-04-29 14:44 | 58.65826 | 18.68004 | 25412 ft | 181 kts | 14° |
| 2026-04-29 14:44 | 58.67040 | 18.68651 | 25412 ft | 181 kts | 14° |
| 2026-04-29 14:44 | 58.68254 | 18.69299 | 25413 ft | 181 kts | 14° |
| 2026-04-29 14:45 | 58.69478 | 18.69956 | 25414 ft | 183 kts | 14° |
| 2026-04-29 14:45 | 58.70710 | 18.70615 | 25416 ft | 185 kts | 14° |
| 2026-04-29 14:45 | 58.71952 | 18.71279 | 25419 ft | 186 kts | 14° |
| 2026-04-29 14:45 | 58.73201 | 18.71948 | 25421 ft | 187 kts | 14° |
| 2026-04-29 14:46 | 58.74456 | 18.72619 | 25418 ft | 188 kts | 14° |
| 2026-04-29 14:46 | 58.75718 | 18.73296 | 25417 ft | 188 kts | 14° |
| 2026-04-29 14:46 | 58.76983 | 18.73974 | 25416 ft | 189 kts | 14° |
| 2026-04-29 14:46 | 58.78253 | 18.74655 | 25418 ft | 190 kts | 14° |
| 2026-04-29 14:47 | 58.79523 | 18.75338 | 25417 ft | 190 kts | 14° |
| 2026-04-29 14:47 | 58.80800 | 18.76024 | 25417 ft | 190 kts | 14° |
| 2026-04-29 14:47 | 58.82078 | 18.76710 | 25413 ft | 191 kts | 14° |
| 2026-04-29 14:47 | 58.82925 | 18.77167 | 25411 ft | 191 kts | 14° |
| 2026-04-29 14:48 | 58.84637 | 18.78089 | 25411 ft | 191 kts | 14° |
| 2026-04-29 14:48 | 58.85918 | 18.78779 | 25411 ft | 191 kts | 14° |
| 2026-04-29 14:48 | 58.87199 | 18.79471 | 25412 ft | 191 kts | 14° |
| 2026-04-29 14:48 | 58.88480 | 18.80162 | 25412 ft | 191 kts | 14° |
| 2026-04-29 14:49 | 58.89761 | 18.80854 | 25410 ft | 191 kts | 14° |
| 2026-04-29 14:49 | 58.91044 | 18.81549 | 25411 ft | 191 kts | 14° |
| 2026-04-29 14:49 | 58.92326 | 18.82242 | 25405 ft | 191 kts | 14° |
| 2026-04-29 14:49 | 58.93607 | 18.82936 | 25406 ft | 191 kts | 14° |
| 2026-04-29 14:50 | 58.94892 | 18.83633 | 25407 ft | 192 kts | 14° |
| 2026-04-29 14:50 | 58.96174 | 18.84328 | 25408 ft | 192 kts | 14° |
| 2026-04-29 14:50 | 58.97458 | 18.85025 | 25408 ft | 192 kts | 14° |
| 2026-04-29 14:50 | 58.98742 | 18.85723 | 25408 ft | 192 kts | 14° |
| 2026-04-29 14:51 | 59.00027 | 18.86421 | 25406 ft | 192 kts | 14° |
| 2026-04-29 14:51 | 59.01313 | 18.87121 | 25407 ft | 192 kts | 14° |
| 2026-04-29 14:51 | 59.02598 | 18.87820 | 25401 ft | 192 kts | 14° |
| 2026-04-29 14:51 | 59.03883 | 18.88521 | 25401 ft | 192 kts | 14° |
| 2026-04-29 14:52 | 59.05167 | 18.89221 | 25401 ft | 192 kts | 14° |
| 2026-04-29 14:52 | 59.06453 | 18.89923 | 25401 ft | 192 kts | 14° |
| 2026-04-29 14:52 | 59.07738 | 18.90625 | 25401 ft | 192 kts | 14° |
| 2026-04-29 14:52 | 59.08590 | 18.91092 | 25401 ft | 192 kts | 13° |
| 2026-04-29 14:53 | 59.10298 | 18.92025 | 25402 ft | 192 kts | 13° |
| 2026-04-29 14:53 | 59.11585 | 18.92730 | 25402 ft | 192 kts | 13° |
| 2026-04-29 14:53 | 59.12872 | 18.93435 | 25402 ft | 192 kts | 13° |
| 2026-04-29 14:53 | 59.13742 | 18.93912 | 25400 ft | 192 kts | 13° |
| 2026-04-29 14:54 | 59.15445 | 18.94846 | 25396 ft | 192 kts | 13° |
| 2026-04-29 14:54 | 59.16296 | 18.95313 | 25396 ft | 192 kts | 13° |
| 2026-04-29 14:54 | 59.17579 | 18.96019 | 25396 ft | 192 kts | 13° |
| 2026-04-29 14:54 | 59.18865 | 18.96726 | 25396 ft | 192 kts | 13° |
| 2026-04-29 14:55 | 59.20147 | 18.97431 | 25397 ft | 192 kts | 13° |
| 2026-04-29 14:55 | 59.21429 | 18.98138 | 25397 ft | 192 kts | 13° |
| 2026-04-29 14:55 | 59.22713 | 18.98845 | 25397 ft | 192 kts | 13° |
| 2026-04-29 14:55 | 59.23996 | 18.99553 | 25397 ft | 192 kts | 13° |
| 2026-04-29 14:56 | 59.25288 | 19.00265 | 25150 ft | 196 kts | 13° |
| 2026-04-29 14:56 | 59.26593 | 19.00986 | 24929 ft | 193 kts | 13° |
| 2026-04-29 14:56 | 59.27881 | 19.01698 | 24708 ft | 192 kts | 13° |
| 2026-04-29 14:56 | 59.29160 | 19.02407 | 24488 ft | 191 kts | 13° |
| 2026-04-29 14:57 | 59.30436 | 19.03113 | 24266 ft | 190 kts | 13° |
| 2026-04-29 14:57 | 59.31711 | 19.03818 | 24052 ft | 191 kts | 13° |
| 2026-04-29 14:57 | 59.32989 | 19.04526 | 23815 ft | 191 kts | 13° |
| 2026-04-29 14:57 | 59.34272 | 19.05238 | 23563 ft | 192 kts | 13° |
| 2026-04-29 14:58 | 59.35562 | 19.05956 | 23312 ft | 193 kts | 13° |
| 2026-04-29 14:58 | 59.36862 | 19.06679 | 23069 ft | 195 kts | 13° |
| 2026-04-29 14:58 | 59.38172 | 19.07410 | 22833 ft | 197 kts | 13° |
| 2026-04-29 14:58 | 59.39493 | 19.08145 | 22604 ft | 198 kts | 13° |
| 2026-04-29 14:59 | 59.40827 | 19.08889 | 22376 ft | 200 kts | 13° |
| 2026-04-29 14:59 | 59.42166 | 19.09636 | 22156 ft | 201 kts | 13° |
| 2026-04-29 14:59 | 59.43515 | 19.10389 | 21940 ft | 202 kts | 13° |
| 2026-04-29 14:59 | 59.44872 | 19.11148 | 21730 ft | 204 kts | 13° |
| 2026-04-29 15:00 | 59.46239 | 19.11912 | 21522 ft | 205 kts | 13° |
| 2026-04-29 15:00 | 59.47594 | 19.12674 | 21307 ft | 200 kts | 13° |
| 2026-04-29 15:00 | 59.48924 | 19.13417 | 21091 ft | 197 kts | 13° |
| 2026-04-29 15:00 | 59.50235 | 19.14150 | 20873 ft | 195 kts | 13° |
| 2026-04-29 15:01 | 59.51536 | 19.14881 | 20655 ft | 194 kts | 14° |
| 2026-04-29 15:01 | 59.52826 | 19.15604 | 20437 ft | 193 kts | 14° |
| 2026-04-29 15:01 | 59.54114 | 19.16328 | 20220 ft | 192 kts | 14° |
| 2026-04-29 15:01 | 59.55397 | 19.17049 | 20007 ft | 192 kts | 14° |
| 2026-04-29 15:02 | 59.56677 | 19.17769 | 19795 ft | 191 kts | 14° |
| 2026-04-29 15:02 | 59.57956 | 19.18490 | 19587 ft | 191 kts | 14° |
| 2026-04-29 15:02 | 59.59235 | 19.19211 | 19380 ft | 191 kts | 14° |
| 2026-04-29 15:02 | 59.60505 | 19.19929 | 19172 ft | 189 kts | 14° |
| 2026-04-29 15:03 | 59.61767 | 19.20640 | 18960 ft | 188 kts | 14° |
| 2026-04-29 15:03 | 59.63024 | 19.21350 | 18752 ft | 188 kts | 14° |
| 2026-04-29 15:03 | 59.64282 | 19.22062 | 18540 ft | 188 kts | 14° |
| 2026-04-29 15:03 | 59.65539 | 19.22773 | 18302 ft | 188 kts | 14° |
| 2026-04-29 15:04 | 59.66797 | 19.23486 | 18072 ft | 188 kts | 14° |
| 2026-04-29 15:04 | 59.68054 | 19.24198 | 17842 ft | 188 kts | 14° |
| 2026-04-29 15:04 | 59.69313 | 19.24913 | 17616 ft | 188 kts | 14° |
| 2026-04-29 15:04 | 59.70574 | 19.25628 | 17392 ft | 188 kts | 14° |
| 2026-04-29 15:05 | 59.71833 | 19.26344 | 17172 ft | 188 kts | 14° |
| 2026-04-29 15:05 | 59.73092 | 19.27061 | 16954 ft | 188 kts | 14° |
| 2026-04-29 15:05 | 59.74351 | 19.27776 | 16740 ft | 188 kts | 14° |
| 2026-04-29 15:05 | 59.75609 | 19.28493 | 16528 ft | 188 kts | 14° |
| 2026-04-29 15:06 | 59.76866 | 19.29209 | 16313 ft | 188 kts | 14° |
| 2026-04-29 15:06 | 59.78123 | 19.29926 | 16099 ft | 188 kts | 14° |
| 2026-04-29 15:06 | 59.79378 | 19.30642 | 15897 ft | 188 kts | 14° |
| 2026-04-29 15:06 | 59.80615 | 19.31350 | 15695 ft | 188 kts | 14° |
| 2026-04-29 15:07 | 59.81897 | 19.32079 | 15478 ft | 191 kts | 14° |
| 2026-04-29 15:07 | 59.83184 | 19.32815 | 15238 ft | 194 kts | 14° |
| 2026-04-29 15:07 | 59.84471 | 19.33552 | 15010 ft | 196 kts | 14° |
| 2026-04-29 15:07 | 59.85789 | 19.34308 | 14782 ft | 198 kts | 14° |
| 2026-04-29 15:08 | 59.87113 | 19.35068 | 14556 ft | 199 kts | 14° |
| 2026-04-29 15:08 | 59.88443 | 19.35831 | 14334 ft | 199 kts | 14° |
| 2026-04-29 15:08 | 59.89776 | 19.36598 | 14106 ft | 199 kts | 14° |
| 2026-04-29 15:08 | 59.91108 | 19.37363 | 13875 ft | 199 kts | 13° |
| 2026-04-29 15:09 | 59.92449 | 19.38135 | 13505 ft | 202 kts | 13° |
| 2026-04-29 15:09 | 59.93800 | 19.38916 | 13106 ft | 203 kts | 13° |
| 2026-04-29 15:09 | 59.95157 | 19.39697 | 12716 ft | 203 kts | 13° |
| 2026-04-29 15:09 | 59.96512 | 19.40481 | 12332 ft | 203 kts | 14° |
| 2026-04-29 15:10 | 59.97779 | 19.41725 | 11951 ft | 206 kts | 30° |
| 2026-04-29 15:10 | 59.98944 | 19.43371 | 11580 ft | 204 kts | 29° |
| 2026-04-29 15:10 | 60.00114 | 19.44954 | 11215 ft | 203 kts | 29° |
| 2026-04-29 15:10 | 60.01277 | 19.46536 | 10855 ft | 202 kts | 29° |
| 2026-04-29 15:11 | 60.02434 | 19.48117 | 10499 ft | 201 kts | 29° |
| 2026-04-29 15:11 | 60.03584 | 19.49694 | 10142 ft | 200 kts | 29° |
| 2026-04-29 15:11 | 60.04729 | 19.51262 | 9752 ft | 199 kts | 29° |
| 2026-04-29 15:11 | 60.05868 | 19.52826 | 9373 ft | 198 kts | 29° |
| 2026-04-29 15:12 | 60.07003 | 19.54382 | 9003 ft | 197 kts | 29° |
| 2026-04-29 15:12 | 60.07765 | 19.55430 | 8753 ft | 197 kts | 29° |
| 2026-04-29 15:12 | 60.09254 | 19.57476 | 8276 ft | 195 kts | 29° |
| 2026-04-29 15:12 | 60.10372 | 19.59015 | 7922 ft | 194 kts | 29° |
| 2026-04-29 15:13 | 60.11484 | 19.60546 | 7575 ft | 194 kts | 29° |
| 2026-04-29 15:13 | 60.12592 | 19.62074 | 7229 ft | 193 kts | 29° |
| 2026-04-29 15:13 | 60.13693 | 19.63592 | 6890 ft | 192 kts | 29° |
| 2026-04-29 15:13 | 60.14790 | 19.65109 | 6544 ft | 191 kts | 29° |
| 2026-04-29 15:14 | 60.15882 | 19.66617 | 6182 ft | 190 kts | 29° |
| 2026-04-29 15:14 | 60.16971 | 19.68124 | 5830 ft | 190 kts | 29° |
| 2026-04-29 15:14 | 60.18058 | 19.69627 | 5483 ft | 190 kts | 28° |
| 2026-04-29 15:14 | 60.19143 | 19.71130 | 5143 ft | 189 kts | 28° |
| 2026-04-29 15:15 | 60.20227 | 19.72634 | 4806 ft | 189 kts | 28° |
| 2026-04-29 15:15 | 60.21304 | 19.74126 | 4459 ft | 187 kts | 28° |
| 2026-04-29 15:15 | 60.22370 | 19.75609 | 4128 ft | 186 kts | 28° |
| 2026-04-29 15:15 | 60.23436 | 19.77090 | 3785 ft | 186 kts | 28° |
| 2026-04-29 15:16 | 60.24502 | 19.78575 | 3456 ft | 187 kts | 28° |
| 2026-04-29 15:16 | 60.25518 | 19.80215 | 3111 ft | 192 kts | 45° |
| 2026-04-29 15:16 | 60.25974 | 19.82787 | 2758 ft | 203 kts | 86° |
| 2026-04-29 15:16 | 60.25630 | 19.85534 | 2419 ft | 203 kts | 114° |
| 2026-04-29 15:17 | 60.24990 | 19.88048 | 2107 ft | 201 kts | 119° |
| 2026-04-29 15:17 | 60.24096 | 19.90138 | 1888 ft | 194 kts | 141° |
| 2026-04-29 15:17 | 60.23011 | 19.91635 | 1679 ft | 185 kts | 150° |
| 2026-04-29 15:17 | 60.21942 | 19.92819 | 1522 ft | 160 kts | 156° |
| 2026-04-29 15:18 | 60.20977 | 19.93634 | 1424 ft | 142 kts | 164° |
| 2026-04-29 15:18 | 60.20095 | 19.94114 | 1326 ft | 123 kts | 175° |
| 2026-04-29 15:18 | 60.19272 | 19.94261 | 1257 ft | 117 kts | 182° |
| 2026-04-29 15:18 | 60.18466 | 19.94282 | 1233 ft | 115 kts | 186° |
| 2026-04-29 15:19 | 60.17666 | 19.94184 | 1146 ft | 116 kts | 192° |
| 2026-04-29 15:19 | 60.16886 | 19.93852 | 1038 ft | 113 kts | 203° |
| 2026-04-29 15:19 | 60.16157 | 19.93258 | 868 ft | 112 kts | 210° |
| 2026-04-29 15:19 | 60.15484 | 19.92648 | 697 ft | 98 kts | 207° |
| 2026-04-29 15:20 | 60.14892 | 19.92150 | 542 ft | 90 kts | 207° |
| 2026-04-29 15:20 | 60.14320 | 19.91650 | 409 ft | 90 kts | 207° |
| 2026-04-29 15:20 | 60.13749 | 19.91147 | 261 ft | 86 kts | 206° |
| 2026-04-29 15:20 | 60.13213 | 19.90689 | 123 ft | 83 kts | 206° |
| 2026-04-29 15:21 | 60.12696 | 19.90234 | 13 ft | 71 kts | 206° |
| 2026-04-29 15:21 | 60.12374 | 19.89941 | 11 ft | 26 kts | 206° |
| 2026-04-29 15:21 | 60.12337 | 19.89919 | 11 ft | 9 kts | 23° |
| 2026-04-29 15:21 | 60.12417 | 19.89999 | 11 ft | 17 kts | 24° |
| 2026-04-29 15:22 | 60.12541 | 19.90121 | 11 ft | 21 kts | 57° |
| 2026-04-29 15:22 | 60.12522 | 19.90364 | 10 ft | 18 kts | 115° |
| 2026-04-29 15:22 | 60.12494 | 19.90500 | 11 ft | 8 kts | 116° |
| 2026-04-29 15:22 | 60.12440 | 19.90502 | 10 ft | 7 kts | 204° |
| 2026-04-29 15:23 | 60.12391 | 19.90462 | 9 ft | 6 kts | 191° |
| 2026-04-29 15:23 | 60.12395 | 19.90511 | 10 ft | 2 kts | 14° |
| 2026-04-29 15:23 | 60.12402 | 19.90516 | 10 ft | 0 kts | 22° |